Terminal Aerodrome Forecast
Issued by NWS Portland, OR

Home | Current Version | Previous Version | Text Only | Print | Product List | Glossary On
Versions: 1 2 3 4 5 6 7 8 9 10 11 12 13 14 15
000
FTUS46 KPQR 301725
TAFTTD
TAF
KTTD 301725Z 3018/0118 01002KT P6SM OVC030
     FM302000 VRB03KT P6SM SCT045
     FM010000 33005KT P6SM FEW045
     FM010300 00000KT P6SM SKC=

USA.gov is the U.S. government's official web portal to all federal, state and local government web resources and services.